Time;durP1;ratioP1;P1;durP2;ratioP2;P2;SDS_P1;SDS_P2;PMS_P1;PMS_P2;Temp;Humidity;BMP_temperature;BMP_pressure;BME280_temperature;BME280_humidity;BME280_pressure;Samples;Min_cycle;Max_cycle;Signal;HPM_P1;HPM_P2
2021/09/13 00:01:12;;;;;;;;;;;14.60;99.90;;;;;;5015799;28;19925;-72
2021/09/13 00:03:39;;;;;;;;;;;14.60;99.90;;;;;;5017472;28;19939;-71
2021/09/13 00:06:09;;;;;;;;;;;14.50;99.90;;;;;;5033865;28;19932;-71
2021/09/13 00:08:41;;;;;;;;;;;14.50;99.90;;;;;;5034427;28;20015;-71
2021/09/13 00:11:12;;;;;;;;;;;14.50;99.90;;;;;;5035382;28;20111;-71
2021/09/13 00:13:44;;;;;;;;;;;14.50;99.90;;;;;;5049449;28;20027;-72
2021/09/13 00:16:21;;;;;;;;;;;14.40;99.90;;;;;;5031914;28;19952;-72
2021/09/13 00:18:48;;;;;;;;;;;14.40;99.90;;;;;;5014849;28;20395;-72
2021/09/13 00:21:16;;;;;;;;;;;14.30;99.90;;;;;;5014579;28;19932;-72
2021/09/13 00:23:44;;;;;;;;;;;14.30;99.90;;;;;;5014502;28;19933;-72
2021/09/13 00:26:16;;;;;;;;;;;14.30;99.90;;;;;;5038764;28;19931;-72
2021/09/13 00:28:43;;;;;;;;;;;14.30;99.90;;;;;;5034362;28;19931;-72
2021/09/13 00:31:10;;;;;;;;;;;14.30;99.90;;;;;;5034153;28;20394;-72
2021/09/13 00:33:42;;;;;;;;;;;14.30;99.90;;;;;;5035251;28;20387;-71
2021/09/13 00:36:15;;;;;;;;;;;14.30;99.90;;;;;;5033647;28;19947;-71
2021/09/13 00:38:43;;;;;;;;;;;14.30;99.90;;;;;;5008923;28;19985;-71
2021/09/13 00:41:09;;;;;;;;;;;14.30;99.90;;;;;;5014394;28;19952;-71
2021/09/13 00:43:38;;;;;;;;;;;14.30;99.90;;;;;;5014117;28;19925;-73
2021/09/13 00:46:04;;;;;;;;;;;14.20;99.90;;;;;;5022119;28;19925;-72
2021/09/13 00:48:31;;;;;;;;;;;14.20;99.90;;;;;;5033869;28;20023;-72
2021/09/13 00:51:03;;;;;;;;;;;14.20;99.90;;;;;;5033849;28;19924;-72
2021/09/13 00:53:37;;;;;;;;;;;14.10;99.90;;;;;;5033870;28;20295;-72
2021/09/13 00:56:09;;;;;;;;;;;14.10;99.90;;;;;;5024999;28;19925;-72
2021/09/13 00:58:43;;;;;;;;;;;14.10;99.90;;;;;;5013958;28;19925;-72
2021/09/13 01:01:15;;;;;;;;;;;14.10;99.90;;;;;;5014554;28;19924;-73
2021/09/13 01:03:42;;;;;;;;;;;14.10;99.90;;;;;;5013497;28;19976;-71
2021/09/13 01:06:15;;;;;;;;;;;14.20;99.90;;;;;;5013930;28;19929;-72
2021/09/13 01:08:44;;;;;;;;;;;14.10;99.90;;;;;;5013334;28;19929;-73
2021/09/13 01:11:10;;;;;;;;;;;14.10;99.90;;;;;;5031029;28;19968;-72
2021/09/13 01:13:38;;;;;;;;;;;14.10;99.90;;;;;;5013253;28;19925;-71
2021/09/13 01:16:10;;;;;;;;;;;14.10;99.90;;;;;;5012912;28;20020;-73
2021/09/13 01:18:36;;;;;;;;;;;14.10;99.90;;;;;;5013209;28;20383;-72
2021/09/13 01:21:08;;;;;;;;;;;14.10;99.90;;;;;;5025786;28;19962;-72
2021/09/13 01:23:43;;;;;;;;;;;14.10;99.90;;;;;;5032990;28;19928;-72
2021/09/13 01:26:12;;;;;;;;;;;14.00;99.90;;;;;;5032357;28;19952;-71
2021/09/13 01:28:44;;;;;;;;;;;14.00;99.90;;;;;;5033171;28;19964;-72
2021/09/13 01:31:19;;;;;;;;;;;13.90;99.90;;;;;;5031632;28;19925;-71
2021/09/13 01:33:51;;;;;;;;;;;13.90;99.90;;;;;;5033337;28;19924;-72
2021/09/13 01:36:27;;;;;;;;;;;13.90;99.90;;;;;;5033000;28;19947;-72
2021/09/13 01:39:05;;;;;;;;;;;13.90;99.90;;;;;;5033120;28;19975;-72
2021/09/13 01:41:36;;;;;;;;;;;13.90;99.90;;;;;;5032352;28;19925;-72
2021/09/13 01:44:05;;;;;;;;;;;13.90;99.90;;;;;;5031457;28;20024;-72
2021/09/13 01:46:40;;;;;;;;;;;13.90;99.90;;;;;;5032725;28;20024;-71
2021/09/13 01:49:13;;;;;;;;;;;13.90;99.90;;;;;;5032499;28;20287;-72
2021/09/13 01:51:48;;;;;;;;;;;13.90;99.90;;;;;;5027790;28;20048;-71
2021/09/13 01:54:15;;;;;;;;;;;13.80;99.90;;;;;;5012945;28;19948;-72
2021/09/13 01:56:49;;;;;;;;;;;13.80;99.90;;;;;;5013459;28;19931;-72
2021/09/13 01:59:29;;;;;;;;;;;13.80;99.90;;;;;;5013067;28;19929;-72
2021/09/13 02:02:00;;;;;;;;;;;13.80;99.90;;;;;;5013457;28;19964;-71
2021/09/13 02:04:32;;;;;;;;;;;13.80;99.90;;;;;;5021330;28;19960;-71
2021/09/13 02:07:01;;;;;;;;;;;13.70;99.90;;;;;;5033023;28;19951;-72
2021/09/13 02:09:33;;;;;;;;;;;13.70;99.90;;;;;;5032937;28;20636;-71
2021/09/13 02:12:12;;;;;;;;;;;13.60;99.90;;;;;;5034271;28;19925;-72
2021/09/13 02:14:39;;;;;;;;;;;13.60;99.90;;;;;;5036287;28;19975;-71
2021/09/13 02:17:12;;;;;;;;;;;13.50;99.90;;;;;;5021208;28;19964;-73
2021/09/13 02:19:46;;;;;;;;;;;13.50;99.90;;;;;;5016767;28;19929;-72
2021/09/13 02:22:18;;;;;;;;;;;13.40;99.90;;;;;;5001152;28;20017;-72
2021/09/13 02:24:56;;;;;;;;;;;13.40;99.90;;;;;;5025975;28;19925;-72
2021/09/13 02:27:23;;;;;;;;;;;13.40;99.90;;;;;;5019997;28;19931;-71
2021/09/13 02:29:55;;;;;;;;;;;13.40;99.90;;;;;;5036449;28;19932;-72
2021/09/13 02:32:21;;;;;;;;;;;13.40;99.90;;;;;;5036358;28;19925;-71
2021/09/13 02:34:53;;;;;;;;;;;13.40;99.90;;;;;;5043940;28;19932;-72
2021/09/13 02:37:20;;;;;;;;;;;13.20;99.90;;;;;;5021623;28;19925;-72
2021/09/13 02:39:46;;;;;;;;;;;13.20;99.90;;;;;;5029489;28;20028;-71
2021/09/13 02:42:19;;;;;;;;;;;13.20;99.90;;;;;;5016528;28;20307;-72
2021/09/13 02:44:52;;;;;;;;;;;13.10;99.90;;;;;;5015929;28;20311;-72
2021/09/13 02:47:25;;;;;;;;;;;13.10;99.90;;;;;;5028134;28;20392;-72
2021/09/13 02:49:59;;;;;;;;;;;13.10;99.90;;;;;;5036189;28;19931;-72
2021/09/13 02:52:27;;;;;;;;;;;13.10;99.90;;;;;;5035995;28;19968;-71
2021/09/13 02:54:59;;;;;;;;;;;13.10;99.90;;;;;;5019640;28;20003;-70
2021/09/13 02:57:26;;;;;;;;;;;13.10;99.90;;;;;;5053847;28;20399;-72
2021/09/13 02:59:53;;;;;;;;;;;13.10;99.90;;;;;;5020104;28;19975;-72
2021/09/13 03:02:24;;;;;;;;;;;13.10;99.90;;;;;;5016310;28;19931;-72
2021/09/13 03:04:56;;;;;;;;;;;13.10;99.90;;;;;;5015673;28;19975;-71
2021/09/13 03:07:28;;;;;;;;;;;13.10;99.90;;;;;;5015941;28;19983;-72
2021/09/13 03:09:59;;;;;;;;;;;13.10;99.90;;;;;;5015868;28;19925;-72
2021/09/13 03:12:33;;;;;;;;;;;13.10;99.90;;;;;;5015812;28;19979;-71
2021/09/13 03:15:04;;;;;;;;;;;13.10;99.90;;;;;;5015267;28;20024;-71
2021/09/13 03:17:36;;;;;;;;;;;13.10;99.90;;;;;;5000270;28;19929;-72
2021/09/13 03:20:04;;;;;;;;;;;13.10;99.90;;;;;;5015600;28;20020;-72
2021/09/13 03:22:32;;;;;;;;;;;13.10;99.90;;;;;;5017132;28;20039;-72
2021/09/13 03:25:05;;;;;;;;;;;13.10;99.90;;;;;;5033994;28;19925;-71
2021/09/13 03:27:37;;;;;;;;;;;13.10;99.90;;;;;;5035311;28;20027;-72
2021/09/13 03:30:05;;;;;;;;;;;13.10;99.90;;;;;;5026890;28;19955;-72
2021/09/13 03:32:42;;;;;;;;;;;13.10;99.90;;;;;;5015466;28;20410;-72
2021/09/13 03:35:09;;;;;;;;;;;13.10;99.90;;;;;;5014962;28;19928;-72
2021/09/13 03:37:41;;;;;;;;;;;13.00;99.90;;;;;;5015356;28;20027;-73
2021/09/13 03:40:08;;;;;;;;;;;13.00;99.90;;;;;;5023348;28;20055;-72
2021/09/13 03:42:35;;;;;;;;;;;12.90;99.90;;;;;;5035065;28;20503;-72
2021/09/13 03:45:08;;;;;;;;;;;12.90;99.90;;;;;;5034537;28;19924;-72
2021/09/13 03:48:05;;;;;;;;;;;12.90;99.90;;;;;;4981272;28;19926;-73
2021/09/13 03:50:42;;;;;;;;;;;12.90;99.90;;;;;;5028100;28;19925;-72
2021/09/13 03:53:14;;;;;;;;;;;12.90;99.90;;;;;;5040977;28;20010;-72
2021/09/13 03:55:46;;;;;;;;;;;12.80;99.90;;;;;;5017555;28;19936;-71
2021/09/13 03:58:17;;;;;;;;;;;12.80;99.90;;;;;;5005306;28;19933;-71
2021/09/13 04:00:50;;;;;;;;;;;12.70;99.90;;;;;;5032241;28;19994;-72
2021/09/13 04:03:31;;;;;;;;;;;12.70;99.90;;;;;;5030608;28;19933;-71
2021/09/13 04:06:03;;;;;;;;;;;12.70;99.90;;;;;;5013644;28;19932;-71
2021/09/13 04:12:02;;;;;;;;;;;12.70;99.90;;;;;;5024372;28;20291;-72
2021/09/13 04:15:03;;;;;;;;;;;12.70;99.90;;;;;;5031953;28;20039;-72
2021/09/13 04:17:52;;;;;;;;;;;12.70;99.90;;;;;;5033663;28;19935;-72
2021/09/13 04:20:36;;;;;;;;;;;12.70;99.90;;;;;;5051645;28;19925;-72
2021/09/13 04:23:16;;;;;;;;;;;12.70;99.90;;;;;;5033523;28;19956;-72
2021/09/13 04:26:26;;;;;;;;;;;12.70;99.90;;;;;;5050343;28;20356;-72
2021/09/13 04:29:19;;;;;;;;;;;12.70;99.90;;;;;;5014621;28;20466;-72
2021/09/13 04:32:06;;;;;;;;;;;12.70;99.90;;;;;;5016812;28;20414;-72
2021/09/13 04:34:58;;;;;;;;;;;12.70;99.90;;;;;;5023816;28;20414;-71
2021/09/13 04:37:47;;;;;;;;;;;12.70;99.90;;;;;;5003408;28;20028;-71
2021/09/13 04:40:19;;;;;;;;;;;12.60;99.90;;;;;;5024217;28;19931;-72
2021/09/13 04:43:21;;;;;;;;;;;12.60;99.90;;;;;;5051297;28;19933;-71
2021/09/13 04:46:06;;;;;;;;;;;12.50;99.90;;;;;;5036652;28;19932;-71
2021/09/13 04:49:04;;;;;;;;;;;12.50;99.90;;;;;;5026232;28;19924;-72
2021/09/13 04:51:55;;;;;;;;;;;12.50;99.90;;;;;;5050112;28;19925;-72
2021/09/13 04:54:34;;;;;;;;;;;12.50;99.90;;;;;;5033353;28;19931;-72
2021/09/13 04:57:06;;;;;;;;;;;12.50;99.90;;;;;;5017949;28;19924;-72
2021/09/13 04:59:37;;;;;;;;;;;12.50;99.90;;;;;;5050818;28;19925;-71
2021/09/13 05:02:09;;;;;;;;;;;12.50;99.90;;;;;;5031894;28;19968;-71
2021/09/13 05:04:38;;;;;;;;;;;12.50;99.90;;;;;;5032949;28;19932;-71
2021/09/13 05:07:10;;;;;;;;;;;12.50;99.90;;;;;;5033677;28;20545;-71
2021/09/13 05:09:37;;;;;;;;;;;12.50;99.90;;;;;;5052137;28;19925;-72
2021/09/13 05:12:10;;;;;;;;;;;12.50;99.90;;;;;;5018562;28;19931;-72
2021/09/13 05:14:41;;;;;;;;;;;12.40;99.90;;;;;;5013149;28;20376;-71
2021/09/13 05:17:13;;;;;;;;;;;12.40;99.90;;;;;;5013717;28;19925;-72
2021/09/13 05:19:40;;;;;;;;;;;12.40;99.90;;;;;;5013465;28;19987;-72
2021/09/13 05:22:12;;;;;;;;;;;12.40;99.90;;;;;;5013584;28;19929;-72
2021/09/13 05:24:43;;;;;;;;;;;12.40;99.90;;;;;;5012966;28;19925;-73
2021/09/13 05:27:10;;;;;;;;;;;12.40;99.90;;;;;;5013965;28;19956;-72
2021/09/13 05:29:43;;;;;;;;;;;12.50;99.90;;;;;;5013668;28;19965;-71
2021/09/13 05:32:14;;;;;;;;;;;12.50;99.90;;;;;;5013744;28;19957;-72
2021/09/13 05:34:41;;;;;;;;;;;12.50;99.90;;;;;;5012908;28;19925;-71
2021/09/13 05:37:13;;;;;;;;;;;12.50;99.90;;;;;;5014200;28;19972;-72
2021/09/13 05:39:40;;;;;;;;;;;12.50;99.90;;;;;;5040963;28;19925;-71
2021/09/13 05:42:15;;;;;;;;;;;12.50;99.90;;;;;;5026716;28;19976;-72
2021/09/13 05:44:47;;;;;;;;;;;12.50;99.90;;;;;;5033837;28;19925;-72
2021/09/13 05:47:14;;;;;;;;;;;12.60;99.90;;;;;;5034775;28;20457;-71
2021/09/13 05:49:47;;;;;;;;;;;12.60;99.90;;;;;;5037001;28;20032;-71
2021/09/13 05:52:22;;;;;;;;;;;12.70;99.90;;;;;;5027404;28;19974;-72
2021/09/13 05:54:49;;;;;;;;;;;12.70;99.90;;;;;;5056523;28;19924;-72
2021/09/13 05:57:20;;;;;;;;;;;12.80;99.90;;;;;;5041226;28;19990;-72
2021/09/13 05:59:52;;;;;;;;;;;12.80;99.90;;;;;;5052522;28;19932;-72
2021/09/13 06:02:25;;;;;;;;;;;12.90;99.90;;;;;;5037025;28;19956;-72
2021/09/13 06:04:58;;;;;;;;;;;12.90;99.90;;;;;;5036428;28;19928;-72
2021/09/13 06:07:25;;;;;;;;;;;12.90;99.90;;;;;;5036861;28;19978;-77
2021/09/13 06:09:52;;;;;;;;;;;12.90;99.90;;;;;;5036607;28;19944;-71
2021/09/13 06:12:24;;;;;;;;;;;13.00;99.90;;;;;;5021295;28;20330;-71
2021/09/13 06:15:02;;;;;;;;;;;13.00;99.90;;;;;;5037536;28;20411;-72
2021/09/13 06:17:33;;;;;;;;;;;13.00;99.90;;;;;;5057030;28;19960;-72
2021/09/13 06:20:00;;;;;;;;;;;13.00;99.90;;;;;;5040484;28;19994;-71
2021/09/13 06:22:32;;;;;;;;;;;13.10;99.90;;;;;;5036452;28;19936;-72
2021/09/13 06:25:09;;;;;;;;;;;13.10;99.90;;;;;;5020967;28;20311;-71
2021/09/13 06:27:43;;;;;;;;;;;13.20;99.90;;;;;;5036536;28;19931;-72
2021/09/13 06:30:11;;;;;;;;;;;13.20;99.90;;;;;;5027399;28;19933;-72
2021/09/13 06:32:43;;;;;;;;;;;13.20;99.90;;;;;;5016384;28;20005;-71
2021/09/13 06:35:17;;;;;;;;;;;13.20;99.90;;;;;;5015731;28;19925;-72
2021/09/13 06:38:02;;;;;;;;;;;13.30;99.90;;;;;;5016233;28;19924;-72
2021/09/13 06:40:38;;;;;;;;;;;13.40;99.90;;;;;;5027296;28;19925;-72
2021/09/13 06:43:14;;;;;;;;;;;13.50;99.90;;;;;;5027861;28;19931;-71
2021/09/13 06:46:00;;;;;;;;;;;13.50;99.90;;;;;;5035396;28;19974;-72
2021/09/13 06:48:35;;;;;;;;;;;13.70;99.90;;;;;;5035920;28;20019;-72
2021/09/13 06:51:05;;;;;;;;;;;13.80;99.90;;;;;;5035688;28;19925;-72
2021/09/13 06:53:35;;;;;;;;;;;13.80;99.90;;;;;;5036026;28;19934;-71
2021/09/13 06:56:07;;;;;;;;;;;13.90;99.90;;;;;;5053567;28;19925;-71
2021/09/13 06:58:35;;;;;;;;;;;13.90;99.90;;;;;;5053398;28;19925;-72
2021/09/13 07:01:03;;;;;;;;;;;13.90;99.90;;;;;;5035877;28;19925;-71
2021/09/13 07:03:35;;;;;;;;;;;13.90;99.90;;;;;;5036593;28;19956;-71
2021/09/13 07:06:20;;;;;;;;;;;13.90;99.90;;;;;;5035077;28;19983;-72
2021/09/13 07:08:55;;;;;;;;;;;13.90;99.90;;;;;;5053208;28;19924;-72
2021/09/13 07:11:30;;;;;;;;;;;14.00;99.90;;;;;;5037255;28;19929;-72
2021/09/13 07:14:06;;;;;;;;;;;14.10;99.90;;;;;;5033647;28;19929;-73
2021/09/13 07:16:38;;;;;;;;;;;14.10;99.90;;;;;;5035012;28;19925;-71
2021/09/13 07:19:18;;;;;;;;;;;14.10;99.90;;;;;;5034908;28;20299;-72
2021/09/13 07:21:54;;;;;;;;;;;14.20;99.90;;;;;;5028744;28;19929;-72
2021/09/13 07:24:21;;;;;;;;;;;14.20;99.90;;;;;;5028495;28;20020;-71
2021/09/13 07:26:56;;;;;;;;;;;14.30;99.90;;;;;;5032599;28;19929;-71
2021/09/13 07:29:24;;;;;;;;;;;14.30;99.90;;;;;;5034401;28;20430;-72
2021/09/13 07:31:58;;;;;;;;;;;14.30;99.90;;;;;;5025979;28;19968;-71
2021/09/13 07:34:36;;;;;;;;;;;14.50;99.90;;;;;;5015408;28;20024;-72
2021/09/13 07:37:03;;;;;;;;;;;14.50;99.90;;;;;;5015015;28;19929;-71
2021/09/13 07:39:35;;;;;;;;;;;14.60;99.90;;;;;;5014807;28;20370;-70
2021/09/13 07:42:11;;;;;;;;;;;14.60;99.90;;;;;;5017684;28;19929;-71
2021/09/13 07:44:38;;;;;;;;;;;14.70;99.90;;;;;;5015225;28;19925;-72
2021/09/13 07:47:13;;;;;;;;;;;14.90;99.90;;;;;;5029733;28;19932;-71
2021/09/13 07:49:48;;;;;;;;;;;15.00;99.90;;;;;;5035638;28;19925;-71
2021/09/13 07:52:16;;;;;;;;;;;15.10;99.90;;;;;;5014580;28;19925;-71
2021/09/13 07:54:49;;;;;;;;;;;15.30;99.90;;;;;;5034258;28;19925;-72
2021/09/13 07:57:21;;;;;;;;;;;15.40;99.90;;;;;;5033158;28;19925;-72
2021/09/13 07:59:53;;;;;;;;;;;15.60;99.90;;;;;;5034043;28;19933;-71
2021/09/13 08:02:25;;;;;;;;;;;15.70;99.90;;;;;;5016296;28;19925;-72
2021/09/13 08:05:01;;;;;;;;;;;15.80;99.90;;;;;;5025725;28;19933;-71
2021/09/13 08:07:27;;;;;;;;;;;15.90;99.90;;;;;;5028871;28;19925;-72
2021/09/13 08:09:54;;;;;;;;;;;16.00;99.90;;;;;;5031461;28;19968;-72
2021/09/13 08:12:27;;;;;;;;;;;16.10;99.90;;;;;;5015527;28;19940;-72
2021/09/13 08:14:54;;;;;;;;;;;16.20;99.90;;;;;;5029036;28;19925;-72
2021/09/13 08:17:26;;;;;;;;;;;16.30;99.90;;;;;;5032714;28;19928;-72
2021/09/13 08:19:59;;;;;;;;;;;16.30;99.90;;;;;;5031027;28;19936;-72
2021/09/13 08:22:26;;;;;;;;;;;16.30;99.90;;;;;;5000334;28;20020;-72
2021/09/13 08:24:58;;;;;;;;;;;16.30;99.90;;;;;;5013623;28;19951;-71
2021/09/13 08:27:47;;;;;;;;;;;16.40;99.90;;;;;;5014071;28;19926;-72
2021/09/13 08:30:14;;;;;;;;;;;16.60;99.90;;;;;;5013136;28;19929;-72
2021/09/13 08:32:42;;;;;;;;;;;16.60;99.90;;;;;;5030608;28;20288;-72
2021/09/13 08:35:14;;;;;;;;;;;16.80;99.90;;;;;;5033477;28;20355;-72
2021/09/13 08:37:46;;;;;;;;;;;17.00;99.90;;;;;;5033761;28;20386;-72
2021/09/13 08:40:17;;;;;;;;;;;17.10;99.90;;;;;;5025853;28;19929;-72
2021/09/13 08:42:50;;;;;;;;;;;17.20;99.90;;;;;;5023558;28;20388;-72
2021/09/13 08:45:22;;;;;;;;;;;17.40;99.90;;;;;;5033149;28;20012;-72
2021/09/13 08:48:07;;;;;;;;;;;17.50;99.90;;;;;;5033519;28;19924;-72
2021/09/13 08:53:08;;;;;;;;;;;17.80;99.90;;;;;;5033172;28;19929;-72
2021/09/13 08:55:40;;;;;;;;;;;17.80;99.90;;;;;;5050996;28;19924;-72
2021/09/13 08:58:08;;;;;;;;;;;17.90;99.90;;;;;;5051106;28;19925;-72
2021/09/13 09:00:41;;;;;;;;;;;18.00;99.90;;;;;;5033778;28;20027;-72
2021/09/13 09:03:14;;;;;;;;;;;18.20;99.90;;;;;;5033451;28;19929;-72
2021/09/13 09:05:47;;;;;;;;;;;18.30;99.90;;;;;;5029691;28;20372;-72
2021/09/13 09:08:32;;;;;;;;;;;18.50;99.90;;;;;;5031492;28;20308;-72
2021/09/13 09:11:04;;;;;;;;;;;18.60;99.90;;;;;;5029130;28;20019;-72
2021/09/13 09:13:37;;;;;;;;;;;18.80;99.90;;;;;;5032731;28;19925;-72
2021/09/13 09:16:10;;;;;;;;;;;19.00;99.90;;;;;;5032466;28;20296;-72
2021/09/13 09:18:48;;;;;;;;;;;19.10;99.90;;;;;;5032249;28;19925;-72
2021/09/13 09:21:30;;;;;;;;;;;19.20;99.90;;;;;;5034170;28;19960;-72
2021/09/13 09:23:58;;;;;;;;;;;19.30;99.90;;;;;;5036662;28;20391;-72
2021/09/13 09:26:25;;;;;;;;;;;19.50;99.90;;;;;;5036554;28;19924;-72
2021/09/13 09:28:57;;;;;;;;;;;19.60;99.90;;;;;;5037104;28;19925;-72
2021/09/13 09:31:45;;;;;;;;;;;19.70;99.90;;;;;;5021123;28;20015;-72
2021/09/13 09:34:17;;;;;;;;;;;19.80;99.90;;;;;;5053745;28;20011;-72
2021/09/13 09:36:58;;;;;;;;;;;20.00;99.90;;;;;;5036477;28;20286;-72
2021/09/13 09:39:29;;;;;;;;;;;20.10;99.90;;;;;;5032682;28;20020;-72
2021/09/13 09:42:01;;;;;;;;;;;20.30;99.90;;;;;;5032434;28;20361;-72
2021/09/13 09:44:28;;;;;;;;;;;20.40;99.90;;;;;;5007525;28;20402;-72
2021/09/13 09:47:01;;;;;;;;;;;20.50;99.90;;;;;;5017232;28;19925;-71
2021/09/13 09:49:38;;;;;;;;;;;20.70;99.90;;;;;;5030229;28;19967;-72
2021/09/13 09:52:10;;;;;;;;;;;20.80;99.90;;;;;;5025629;28;19924;-72
2021/09/13 09:54:37;;;;;;;;;;;20.90;99.90;;;;;;5032640;28;20331;-72
2021/09/13 09:57:05;;;;;;;;;;;21.00;99.90;;;;;;5035403;28;19928;-72
2021/09/13 09:59:35;;;;;;;;;;;21.00;99.90;;;;;;5037477;28;19924;-72
2021/09/13 10:02:14;;;;;;;;;;;21.10;99.90;;;;;;5052426;28;19924;-75
2021/09/13 10:04:47;;;;;;;;;;;21.30;99.90;;;;;;5036795;28;20377;-74
2021/09/13 10:07:20;;;;;;;;;;;21.40;99.90;;;;;;5033492;28;20015;-73
2021/09/13 10:09:46;;;;;;;;;;;21.50;99.90;;;;;;5014336;28;19925;-72
2021/09/13 10:12:13;;;;;;;;;;;21.60;99.90;;;;;;5020112;28;20403;-72
2021/09/13 10:14:41;;;;;;;;;;;21.80;99.90;;;;;;5030616;28;20392;-73
2021/09/13 10:17:12;;;;;;;;;;;21.80;99.90;;;;;;5034317;28;20012;-73
2021/09/13 10:19:39;;;;;;;;;;;21.90;99.90;;;;;;5045171;28;19925;-73
2021/09/13 10:22:06;;;;;;;;;;;22.00;99.90;;;;;;5036509;28;19978;-73
2021/09/13 10:24:33;;;;;;;;;;;22.10;99.90;;;;;;5035345;28;19993;-72
2021/09/13 10:27:07;;;;;;;;;;;22.20;99.90;;;;;;5035981;28;20019;-72
2021/09/13 10:29:34;;;;;;;;;;;22.20;99.90;;;;;;5032625;28;19929;-72
2021/09/13 10:32:07;;;;;;;;;;;22.20;99.90;;;;;;5035530;28;19933;-73
2021/09/13 10:34:42;;;;;;;;;;;22.30;99.90;;;;;;5035155;28;20395;-72
2021/09/13 10:37:16;;;;;;;;;;;22.40;99.90;;;;;;5033754;28;19966;-73
2021/09/13 10:39:57;;;;;;;;;;;22.50;99.90;;;;;;5030231;28;19947;-72
2021/09/13 10:42:32;;;;;;;;;;;22.50;99.90;;;;;;5028497;28;19929;-72
2021/09/13 10:45:08;;;;;;;;;;;22.50;99.90;;;;;;5004355;28;20127;-72
2021/09/13 10:47:41;;;;;;;;;;;22.60;99.90;;;;;;5025257;28;19925;-73
2021/09/13 10:50:15;;;;;;;;;;;22.70;99.90;;;;;;5028588;28;19971;-71
2021/09/13 10:52:43;;;;;;;;;;;22.80;99.90;;;;;;5022038;28;20311;-71
2021/09/13 10:55:19;;;;;;;;;;;23.00;99.90;;;;;;5011309;28;19931;-72
2021/09/13 10:57:51;;;;;;;;;;;23.20;99.90;;;;;;5035474;28;20554;-72
2021/09/13 11:00:39;;;;;;;;;;;23.40;99.90;;;;;;5019093;28;19934;-72
2021/09/13 11:03:37;;;;;;;;;;;23.50;99.90;;;;;;5015721;28;19947;-72
2021/09/13 11:06:17;;;;;;;;;;;23.70;99.90;;;;;;5028290;28;19940;-73
2021/09/13 11:08:52;;;;;;;;;;;23.70;99.90;;;;;;5031452;28;19925;-71
2021/09/13 11:11:30;;;;;;;;;;;23.70;99.90;;;;;;5030070;28;20020;-72
2021/09/13 11:14:04;;;;;;;;;;;23.80;99.90;;;;;;5033082;28;19925;-73
2021/09/13 11:16:46;;;;;;;;;;;23.80;99.90;;;;;;5026188;28;19933;-73
2021/09/13 11:19:15;;;;;;;;;;;23.80;99.90;;;;;;5031971;28;19971;-73
2021/09/13 11:21:57;;;;;;;;;;;23.90;99.90;;;;;;5036671;28;19925;-73
2021/09/13 11:24:33;;;;;;;;;;;24.10;99.90;;;;;;5031162;28;19928;-71
2021/09/13 11:27:08;;;;;;;;;;;24.10;99.90;;;;;;5029624;28;19968;-73
2021/09/13 11:29:36;;;;;;;;;;;24.30;99.90;;;;;;5024569;28;20383;-73
2021/09/13 11:32:15;;;;;;;;;;;24.40;99.90;;;;;;5049381;28;19948;-72
2021/09/13 11:34:50;;;;;;;;;;;24.40;99.90;;;;;;5036126;28;20016;-73
2021/09/13 11:37:26;;;;;;;;;;;24.20;99.90;;;;;;5008273;28;19926;-72
2021/09/13 11:40:03;;;;;;;;;;;24.10;99.90;;;;;;4999162;28;19975;-73
2021/09/13 11:42:37;;;;;;;;;;;24.00;99.90;;;;;;5032652;28;20018;-73
2021/09/13 11:45:12;;;;;;;;;;;24.10;99.90;;;;;;5040458;28;19979;-72
2021/09/13 11:47:40;;;;;;;;;;;24.20;99.90;;;;;;5027006;28;19933;-73
2021/09/13 11:50:14;;;;;;;;;;;24.30;99.90;;;;;;5014726;28;20414;-72
2021/09/13 11:52:43;;;;;;;;;;;24.40;99.90;;;;;;5032626;28;19925;-73
2021/09/13 11:55:23;;;;;;;;;;;24.40;99.90;;;;;;5031958;28;19925;-73
2021/09/13 11:58:00;;;;;;;;;;;24.50;99.90;;;;;;5028590;28;20010;-73
2021/09/13 12:00:36;;;;;;;;;;;24.60;99.90;;;;;;5049977;28;19929;-72
2021/09/13 12:03:05;;;;;;;;;;;24.80;99.90;;;;;;5051421;28;19929;-73
2021/09/13 12:05:43;;;;;;;;;;;24.90;99.90;;;;;;5017641;28;19979;-72
2021/09/13 12:08:20;;;;;;;;;;;25.10;99.90;;;;;;5017492;28;19937;-73
2021/09/13 12:10:54;;;;;;;;;;;25.10;99.90;;;;;;5017042;28;19924;-72
2021/09/13 12:13:23;;;;;;;;;;;25.10;99.90;;;;;;5033781;28;19996;-72
2021/09/13 12:15:56;;;;;;;;;;;25.20;99.90;;;;;;5033736;28;19928;-73
2021/09/13 12:18:29;;;;;;;;;;;25.20;99.90;;;;;;5022502;28;19964;-73
2021/09/13 12:21:02;;;;;;;;;;;25.30;99.90;;;;;;5043326;28;19925;-73
2021/09/13 12:23:37;;;;;;;;;;;25.40;99.90;;;;;;5011054;28;20387;-72
2021/09/13 12:26:06;;;;;;;;;;;25.60;99.90;;;;;;5048595;28;19967;-73
2021/09/13 12:28:38;;;;;;;;;;;25.60;99.90;;;;;;5029723;28;20020;-73
2021/09/13 12:31:06;;;;;;;;;;;25.40;99.90;;;;;;5025715;28;19940;-72
2021/09/13 12:33:39;;;;;;;;;;;25.20;99.90;;;;;;5042468;28;20016;-72
2021/09/13 12:36:14;;;;;;;;;;;25.10;99.90;;;;;;5032119;28;19925;-71
2021/09/13 12:38:51;;;;;;;;;;;24.90;99.90;;;;;;5014401;28;19925;-71
2021/09/13 12:41:33;;;;;;;;;;;24.90;99.90;;;;;;5045051;28;20011;-71
2021/09/13 12:44:11;;;;;;;;;;;24.90;99.90;;;;;;5051814;28;19986;-72
2021/09/13 12:46:44;;;;;;;;;;;25.00;99.90;;;;;;5051913;28;20015;-71
2021/09/13 12:49:16;;;;;;;;;;;25.00;99.90;;;;;;5030845;28;19957;-71
2021/09/13 12:51:55;;;;;;;;;;;25.10;99.90;;;;;;5054362;28;19928;-71
2021/09/13 12:54:28;;;;;;;;;;;25.20;99.90;;;;;;5051258;28;20015;-72
2021/09/13 12:56:59;;;;;;;;;;;25.30;99.90;;;;;;5032241;28;19928;-71
2021/09/13 12:59:33;;;;;;;;;;;25.40;99.90;;;;;;5018254;28;20269;-71
2021/09/13 13:02:12;;;;;;;;;;;25.50;99.90;;;;;;5046720;28;20308;-73
2021/09/13 13:04:46;;;;;;;;;;;25.60;99.90;;;;;;5045802;28;19963;-71
2021/09/13 13:07:15;;;;;;;;;;;25.70;99.90;;;;;;5012314;28;19965;-73
2021/09/13 13:09:47;;;;;;;;;;;25.70;99.90;;;;;;5031349;28;20006;-71
2021/09/13 13:12:14;;;;;;;;;;;25.80;99.90;;;;;;5032040;28;20319;-71
2021/09/13 13:14:42;;;;;;;;;;;25.80;99.90;;;;;;5031643;28;19932;-71
2021/09/13 13:17:09;;;;;;;;;;;25.80;99.90;;;;;;5044829;28;19947;-72
2021/09/13 13:19:41;;;;;;;;;;;25.80;99.90;;;;;;5031873;28;19924;-71
2021/09/13 13:22:17;;;;;;;;;;;25.80;99.90;;;;;;5050474;28;20024;-71
2021/09/13 13:24:52;;;;;;;;;;;25.80;99.90;;;;;;5049810;28;19925;-72
2021/09/13 13:27:24;;;;;;;;;;;25.90;99.90;;;;;;5028143;28;19979;-71
2021/09/13 13:29:56;;;;;;;;;;;25.90;99.90;;;;;;5047793;28;20601;-71
2021/09/13 13:32:24;;;;;;;;;;;25.90;99.90;;;;;;5032452;28;19925;-71
2021/09/13 13:34:59;;;;;;;;;;;26.00;99.90;;;;;;5031544;28;19925;-71
2021/09/13 13:37:31;;;;;;;;;;;26.10;99.90;;;;;;5032311;28;20008;-71
2021/09/13 13:39:58;;;;;;;;;;;26.10;99.90;;;;;;5032482;28;19949;-71
2021/09/13 13:42:27;;;;;;;;;;;26.20;99.90;;;;;;5032594;28;19968;-72
2021/09/13 13:44:59;;;;;;;;;;;26.20;99.90;;;;;;5032049;28;19928;-73
2021/09/13 13:47:27;;;;;;;;;;;26.20;99.90;;;;;;5032370;28;19936;-72
2021/09/13 13:49:59;;;;;;;;;;;26.30;99.90;;;;;;5038609;28;20346;-71
2021/09/13 13:52:32;;;;;;;;;;;26.40;99.90;;;;;;5025648;28;19925;-71
2021/09/13 13:55:05;;;;;;;;;;;26.40;99.90;;;;;;5020456;28;19987;-71
2021/09/13 13:57:41;;;;;;;;;;;26.30;99.90;;;;;;5047691;28;20011;-71
2021/09/13 14:00:08;;;;;;;;;;;26.30;99.90;;;;;;5049862;28;19987;-71
2021/09/13 14:02:38;;;;;;;;;;;26.30;99.40;;;;;;5029826;28;20012;-71
2021/09/13 14:05:05;;;;;;;;;;;26.20;99.90;;;;;;5029386;28;20299;-71
2021/09/13 14:07:38;;;;;;;;;;;26.20;99.50;;;;;;5043233;28;19925;-71
2021/09/13 14:10:18;;;;;;;;;;;26.10;99.20;;;;;;5014562;28;20295;-71
2021/09/13 14:12:50;;;;;;;;;;;26.00;98.60;;;;;;5028825;28;19924;-70
2021/09/13 14:15:18;;;;;;;;;;;25.90;99.30;;;;;;5022840;28;19951;-71
2021/09/13 14:17:51;;;;;;;;;;;26.00;99.80;;;;;;5041533;28;19925;-71
2021/09/13 14:20:19;;;;;;;;;;;26.20;99.90;;;;;;5034191;28;19963;-72
2021/09/13 14:22:45;;;;;;;;;;;26.30;99.90;;;;;;5034346;28;20362;-72
2021/09/13 14:25:20;;;;;;;;;;;26.40;97.60;;;;;;5030769;28;19929;-72
2021/09/13 14:27:52;;;;;;;;;;;26.40;97.40;;;;;;5049950;28;19931;-72
2021/09/13 14:30:28;;;;;;;;;;;26.40;97.30;;;;;;5067271;28;19924;-71
2021/09/13 14:32:59;;;;;;;;;;;26.40;97.60;;;;;;5054396;28;19924;-71
2021/09/13 14:35:32;;;;;;;;;;;26.30;98.00;;;;;;5054614;28;19925;-72
2021/09/13 14:38:04;;;;;;;;;;;26.40;97.60;;;;;;5073009;28;19924;-71
2021/09/13 14:40:34;;;;;;;;;;;26.60;97.80;;;;;;5054614;28;19960;-72
2021/09/13 14:43:07;;;;;;;;;;;26.90;96.00;;;;;;5054678;28;20370;-72
2021/09/13 14:45:40;;;;;;;;;;;27.30;96.40;;;;;;5072440;28;19925;-71
2021/09/13 14:48:12;;;;;;;;;;;27.70;98.40;;;;;;5072946;28;19931;-72
2021/09/13 14:50:39;;;;;;;;;;;28.10;96.60;;;;;;5072678;28;20019;-71
2021/09/13 14:53:11;;;;;;;;;;;28.30;95.00;;;;;;5055298;28;20026;-72
2021/09/13 14:55:43;;;;;;;;;;;28.60;94.30;;;;;;5054659;28;19982;-72